LGAL/AXD METAR and TAF weather

Enter ICAO airport designator
Station Type Date Time Source
LGAL METAR 2020/04/07 16:50 UTC NOAA

LGAL 071650Z 04015G26KT CAVOK 12/M02 Q1026


Station Type Date Time Source
LGAL Decoded METAR 2020/04/07 16:50 UTC NOAA

Alexandroupoli Airport , Greece (LGAL) 40-51N 025-55E 3M
Apr 07, 2020 - 12:50 PM EDT / 2020.04.07 1650 UTC
Wind: from the NE (040 degrees) at 17 MPH (15 KT) gusting to 30 MPH (26 KT):0
Visibility: greater than 7 mile(s):0
Temperature: 53 F (12 C)
Dew Point: 28 F (-2 C)
Relative Humidity: 37%
Pressure (altimeter): 30.30 in. Hg (1026 hPa)
ob: LGAL 071650Z 04015G26KT CAVOK 12/M02 Q1026
cycle: 17

Station Type Date Time Source
LGAL TAF 2012/09/21 03:06 UTC NOAA

TAF TAF LGAL 210200Z 2103/2115 03012G22KT 9999 FEW020 SCT070 PROB30
TEMPO 2103/2106 6000 RA SCT015 BKN030 PROB30

Example: see airport list